sensor_id;sensor_type;location;lat;lon;timestamp;pressure;altitude;pressure_sealevel;temperature;humidity
65758;BME280;52495;52.208;5.158;2023-05-14T00:01:17;101984.88;;;14.53;82.74
65758;BME280;52495;52.208;5.158;2023-05-14T00:03:43;101984.94;;;14.48;83.64
65758;BME280;52495;52.208;5.158;2023-05-14T00:06:10;101981.41;;;14.52;83.48
65758;BME280;52495;52.208;5.158;2023-05-14T00:08:38;101976.22;;;14.52;83.30
65758;BME280;52495;52.208;5.158;2023-05-14T00:11:05;101987.53;;;14.48;83.15
65758;BME280;52495;52.208;5.158;2023-05-14T00:13:33;101973.72;;;14.46;83.96
65758;BME280;52495;52.208;5.158;2023-05-14T00:16:00;101978.19;;;14.38;83.82
65758;BME280;52495;52.208;5.158;2023-05-14T00:18:27;101972.00;;;14.47;83.71
65758;BME280;52495;52.208;5.158;2023-05-14T00:20:54;101965.94;;;14.45;83.92
65758;BME280;52495;52.208;5.158;2023-05-14T00:23:21;101964.28;;;14.42;84.27
65758;BME280;52495;52.208;5.158;2023-05-14T00:25:49;101958.94;;;14.50;84.14
65758;BME280;52495;52.208;5.158;2023-05-14T00:28:16;101951.31;;;14.37;84.79
65758;BME280;52495;52.208;5.158;2023-05-14T00:30:43;101954.88;;;14.33;84.57
65758;BME280;52495;52.208;5.158;2023-05-14T00:33:11;101960.13;;;14.29;85.03
65758;BME280;52495;52.208;5.158;2023-05-14T00:35:37;101958.34;;;14.32;84.87
65758;BME280;52495;52.208;5.158;2023-05-14T00:38:04;101956.53;;;14.37;84.71
65758;BME280;52495;52.208;5.158;2023-05-14T00:40:31;101948.88;;;14.28;84.92
65758;BME280;52495;52.208;5.158;2023-05-14T00:43:00;101947.13;;;14.30;85.20
65758;BME280;52495;52.208;5.158;2023-05-14T00:45:27;101934.25;;;14.21;85.51
65758;BME280;52495;52.208;5.158;2023-05-14T00:47:54;101941.13;;;14.25;85.67
65758;BME280;52495;52.208;5.158;2023-05-14T00:50:21;101938.59;;;14.20;85.68
65758;BME280;52495;52.208;5.158;2023-05-14T00:52:52;101937.59;;;14.29;85.49
65758;BME280;52495;52.208;5.158;2023-05-14T00:55:20;101936.84;;;14.21;86.10
65758;BME280;52495;52.208;5.158;2023-05-14T00:57:47;101925.69;;;14.16;85.95
65758;BME280;52495;52.208;5.158;2023-05-14T01:00:16;101926.63;;;14.10;86.77
65758;BME280;52495;52.208;5.158;2023-05-14T01:02:43;101923.25;;;14.05;87.08
65758;BME280;52495;52.208;5.158;2023-05-14T01:05:10;101924.84;;;14.14;87.20
65758;BME280;52495;52.208;5.158;2023-05-14T01:07:45;101928.41;;;14.08;87.27
65758;BME280;52495;52.208;5.158;2023-05-14T01:10:18;101932.75;;;14.06;87.87
65758;BME280;52495;52.208;5.158;2023-05-14T01:12:52;101933.63;;;14.05;87.79
65758;BME280;52495;52.208;5.158;2023-05-14T01:15:24;101931.91;;;14.02;88.28
65758;BME280;52495;52.208;5.158;2023-05-14T01:17:58;101932.09;;;13.91;88.34
65758;BME280;52495;52.208;5.158;2023-05-14T01:20:25;101935.50;;;13.93;88.89
65758;BME280;52495;52.208;5.158;2023-05-14T01:22:53;101932.16;;;13.85;89.18
65758;BME280;52495;52.208;5.158;2023-05-14T01:25:20;101937.38;;;13.82;89.49
65758;BME280;52495;52.208;5.158;2023-05-14T01:27:51;101938.38;;;13.73;89.50
65758;BME280;52495;52.208;5.158;2023-05-14T01:30:27;101938.19;;;13.86;90.20
65758;BME280;52495;52.208;5.158;2023-05-14T01:32:58;101942.63;;;13.80;89.61
65758;BME280;52495;52.208;5.158;2023-05-14T01:35:28;101937.44;;;13.79;89.86
65758;BME280;52495;52.208;5.158;2023-05-14T01:37:59;101932.28;;;13.76;90.26
65758;BME280;52495;52.208;5.158;2023-05-14T01:40:26;101928.88;;;13.72;90.19
65758;BME280;52495;52.208;5.158;2023-05-14T01:42:53;101919.47;;;13.63;91.02
65758;BME280;52495;52.208;5.158;2023-05-14T01:45:21;101927.25;;;13.63;91.28
65758;BME280;52495;52.208;5.158;2023-05-14T01:47:48;101915.19;;;13.61;91.39
65758;BME280;52495;52.208;5.158;2023-05-14T01:50:15;101916.81;;;13.68;91.03
65758;BME280;52495;52.208;5.158;2023-05-14T01:52:42;101908.22;;;13.61;91.56
65758;BME280;52495;52.208;5.158;2023-05-14T01:55:10;101908.19;;;13.66;91.46
65758;BME280;52495;52.208;5.158;2023-05-14T01:57:37;101911.69;;;13.65;91.38
65758;BME280;52495;52.208;5.158;2023-05-14T02:00:05;101909.09;;;13.62;91.45
65758;BME280;52495;52.208;5.158;2023-05-14T02:02:39;101904.91;;;13.53;91.99
65758;BME280;52495;52.208;5.158;2023-05-14T02:05:09;101910.91;;;13.57;91.54
65758;BME280;52495;52.208;5.158;2023-05-14T02:07:37;101899.56;;;13.62;91.84
65758;BME280;52495;52.208;5.158;2023-05-14T02:10:05;101896.22;;;13.56;92.10
65758;BME280;52495;52.208;5.158;2023-05-14T02:12:33;101899.69;;;13.55;92.25
65758;BME280;52495;52.208;5.158;2023-05-14T02:15:00;101908.44;;;13.46;92.75
65758;BME280;52495;52.208;5.158;2023-05-14T02:17:27;101898.97;;;13.43;92.35
65758;BME280;52495;52.208;5.158;2023-05-14T02:19:53;101895.56;;;13.35;93.31
65758;BME280;52495;52.208;5.158;2023-05-14T02:22:20;101907.66;;;13.36;93.15
65758;BME280;52495;52.208;5.158;2023-05-14T02:24:47;101905.09;;;13.34;93.34
65758;BME280;52495;52.208;5.158;2023-05-14T02:27:17;101896.44;;;13.34;93.50
65758;BME280;52495;52.208;5.158;2023-05-14T02:29:45;101900.81;;;13.32;93.61
65758;BME280;52495;52.208;5.158;2023-05-14T02:32:12;101881.03;;;13.23;93.98
65758;BME280;52495;52.208;5.158;2023-05-14T02:34:39;101897.38;;;13.30;93.93
65758;BME280;52495;52.208;5.158;2023-05-14T02:37:06;101898.25;;;13.26;94.63
65758;BME280;52495;52.208;5.158;2023-05-14T02:39:32;101895.66;;;13.24;94.44
65758;BME280;52495;52.208;5.158;2023-05-14T02:41:59;101891.34;;;13.25;94.40
65758;BME280;52495;52.208;5.158;2023-05-14T02:44:26;101887.03;;;13.25;94.75
65758;BME280;52495;52.208;5.158;2023-05-14T02:46:54;101887.06;;;13.20;95.16
65758;BME280;52495;52.208;5.158;2023-05-14T02:49:21;101881.03;;;13.18;94.94
65758;BME280;52495;52.208;5.158;2023-05-14T02:51:48;101883.63;;;13.20;95.43
65758;BME280;52495;52.208;5.158;2023-05-14T02:54:15;101886.22;;;13.20;95.36
65758;BME280;52495;52.208;5.158;2023-05-14T02:56:41;101869.75;;;13.26;94.26
65758;BME280;52495;52.208;5.158;2023-05-14T02:59:08;101885.31;;;13.23;94.64
65758;BME280;52495;52.208;5.158;2023-05-14T03:01:35;101880.16;;;13.21;94.98
65758;BME280;52495;52.208;5.158;2023-05-14T03:04:03;101864.72;;;13.09;94.96
65758;BME280;52495;52.208;5.158;2023-05-14T03:06:30;101878.53;;;13.11;95.34
65758;BME280;52495;52.208;5.158;2023-05-14T03:08:57;101877.56;;;13.19;95.17
65758;BME280;52495;52.208;5.158;2023-05-14T03:11:24;101881.91;;;13.19;95.53
65758;BME280;52495;52.208;5.158;2023-05-14T03:13:51;101883.72;;;13.12;95.58
65758;BME280;52495;52.208;5.158;2023-05-14T03:16:17;101893.25;;;13.09;96.16
65758;BME280;52495;52.208;5.158;2023-05-14T03:18:44;101877.69;;;13.10;96.38
65758;BME280;52495;52.208;5.158;2023-05-14T03:21:14;101882.97;;;13.01;96.58
65758;BME280;52495;52.208;5.158;2023-05-14T03:23:42;101878.50;;;13.14;96.74
65758;BME280;52495;52.208;5.158;2023-05-14T03:26:09;101873.47;;;13.00;97.16
65758;BME280;52495;52.208;5.158;2023-05-14T03:28:36;101889.88;;;13.03;97.02
65758;BME280;52495;52.208;5.158;2023-05-14T03:31:03;101884.69;;;13.03;97.62
65758;BME280;52495;52.208;5.158;2023-05-14T03:33:29;101879.56;;;12.97;97.80
65758;BME280;52495;52.208;5.158;2023-05-14T03:35:56;101883.91;;;12.97;98.01
65758;BME280;52495;52.208;5.158;2023-05-14T03:38:24;101871.75;;;12.99;97.52
65758;BME280;52495;52.208;5.158;2023-05-14T03:40:51;101875.25;;;12.98;97.62
65758;BME280;52495;52.208;5.158;2023-05-14T03:43:18;101870.09;;;12.95;97.90
65758;BME280;52495;52.208;5.158;2023-05-14T03:45:45;101860.56;;;12.97;97.29
65758;BME280;52495;52.208;5.158;2023-05-14T03:48:16;101856.25;;;12.96;97.20
65758;BME280;52495;52.208;5.158;2023-05-14T03:50:43;101859.69;;;12.96;97.61
65758;BME280;52495;52.208;5.158;2023-05-14T03:53:10;101868.38;;;12.94;97.71
65758;BME280;52495;52.208;5.158;2023-05-14T03:55:38;101862.31;;;12.95;96.92
65758;BME280;52495;52.208;5.158;2023-05-14T03:58:09;101868.34;;;12.97;96.79
65758;BME280;52495;52.208;5.158;2023-05-14T04:00:39;101854.47;;;12.99;96.86
65758;BME280;52495;52.208;5.158;2023-05-14T04:03:06;101859.72;;;12.95;96.71
65758;BME280;52495;52.208;5.158;2023-05-14T04:05:33;101860.59;;;12.92;96.47
65758;BME280;52495;52.208;5.158;2023-05-14T04:08:00;101862.25;;;12.99;96.43
65758;BME280;52495;52.208;5.158;2023-05-14T04:10:27;101863.16;;;12.95;96.03
65758;BME280;52495;52.208;5.158;2023-05-14T04:12:55;101871.84;;;12.91;96.25
65758;BME280;52495;52.208;5.158;2023-05-14T04:15:26;101868.38;;;12.94;96.66
65758;BME280;52495;52.208;5.158;2023-05-14T04:17:53;101868.38;;;12.92;96.05
65758;BME280;52495;52.208;5.158;2023-05-14T04:20:20;101864.06;;;12.91;96.17
65758;BME280;52495;52.208;5.158;2023-05-14T04:22:47;101862.22;;;13.02;95.07
65758;BME280;52495;52.208;5.158;2023-05-14T04:25:14;101867.47;;;12.96;95.63
65758;BME280;52495;52.208;5.158;2023-05-14T04:27:42;101864.03;;;12.96;95.56
65758;BME280;52495;52.208;5.158;2023-05-14T04:30:11;101864.94;;;12.90;95.99
65758;BME280;52495;52.208;5.158;2023-05-14T04:32:38;101871.84;;;12.91;95.57
65758;BME280;52495;52.208;5.158;2023-05-14T04:35:06;101870.13;;;12.92;96.21
65758;BME280;52495;52.208;5.158;2023-05-14T04:37:33;101867.50;;;12.95;95.91
65758;BME280;52495;52.208;5.158;2023-05-14T04:40:00;101872.69;;;12.95;96.06
65758;BME280;52495;52.208;5.158;2023-05-14T04:42:26;101871.81;;;12.94;95.97
65758;BME280;52495;52.208;5.158;2023-05-14T04:44:53;101872.59;;;13.01;96.45
65758;BME280;52495;52.208;5.158;2023-05-14T04:47:21;101866.50;;;13.05;96.32
65758;BME280;52495;52.208;5.158;2023-05-14T04:49:48;101866.56;;;13.00;96.74
65758;BME280;52495;52.208;5.158;2023-05-14T04:52:15;101864.78;;;13.04;96.97
65758;BME280;52495;52.208;5.158;2023-05-14T04:54:41;101864.78;;;13.05;96.71
65758;BME280;52495;52.208;5.158;2023-05-14T04:57:08;101865.59;;;13.09;96.92
65758;BME280;52495;52.208;5.158;2023-05-14T04:59:35;101860.47;;;13.03;97.12
65758;BME280;52495;52.208;5.158;2023-05-14T05:02:02;101866.44;;;13.11;97.32
65758;BME280;52495;52.208;5.158;2023-05-14T05:04:30;101874.13;;;13.19;97.44
65758;BME280;52495;52.208;5.158;2023-05-14T05:06:57;101874.94;;;13.24;96.89
65758;BME280;52495;52.208;5.158;2023-05-14T05:09:23;101871.50;;;13.22;97.45
65758;BME280;52495;52.208;5.158;2023-05-14T05:11:50;101873.25;;;13.18;97.74
65758;BME280;52495;52.208;5.158;2023-05-14T05:14:17;101875.78;;;13.25;97.88
65758;BME280;52495;52.208;5.158;2023-05-14T05:16:44;101882.75;;;13.21;98.23
65758;BME280;52495;52.208;5.158;2023-05-14T05:19:11;101875.66;;;13.37;97.64
65758;BME280;52495;52.208;5.158;2023-05-14T05:21:39;101876.53;;;13.41;97.58
65758;BME280;52495;52.208;5.158;2023-05-14T05:24:06;101872.03;;;13.50;96.60
65758;BME280;52495;52.208;5.158;2023-05-14T05:26:33;101873.84;;;13.45;98.04
65758;BME280;52495;52.208;5.158;2023-05-14T05:29:01;101877.38;;;13.41;97.93
65758;BME280;52495;52.208;5.158;2023-05-14T05:31:28;101880.81;;;13.43;97.73
65758;BME280;52495;52.208;5.158;2023-05-14T05:33:55;101861.84;;;13.35;98.41
65758;BME280;52495;52.208;5.158;2023-05-14T05:36:21;101859.19;;;13.41;99.00
65758;BME280;52495;52.208;5.158;2023-05-14T05:38:50;101878.72;;;13.72;96.56
65758;BME280;52495;52.208;5.158;2023-05-14T05:41:16;101872.69;;;13.68;96.41
65758;BME280;52495;52.208;5.158;2023-05-14T05:43:43;101876.97;;;13.72;95.90
65758;BME280;52495;52.208;5.158;2023-05-14T05:46:10;101872.69;;;13.68;96.68
65758;BME280;52495;52.208;5.158;2023-05-14T05:48:37;101880.31;;;13.79;95.89
65758;BME280;52495;52.208;5.158;2023-05-14T05:51:04;101884.63;;;13.80;95.72
65758;BME280;52495;52.208;5.158;2023-05-14T05:53:30;101872.56;;;13.77;95.47
65758;BME280;52495;52.208;5.158;2023-05-14T05:55:59;101882.81;;;13.87;95.59
65758;BME280;52495;52.208;5.158;2023-05-14T05:58:25;101878.47;;;13.90;95.03
65758;BME280;52495;52.208;5.158;2023-05-14T06:00:52;101880.97;;;13.93;94.74
65758;BME280;52495;52.208;5.158;2023-05-14T06:03:19;101882.66;;;13.98;94.40
65758;BME280;52495;52.208;5.158;2023-05-14T06:05:46;101886.09;;;14.00;94.21
65758;BME280;52495;52.208;5.158;2023-05-14T06:08:13;101888.75;;;13.95;94.64
65758;BME280;52495;52.208;5.158;2023-05-14T06:10:40;101885.28;;;13.94;95.59
65758;BME280;52495;52.208;5.158;2023-05-14T06:13:08;101884.28;;;14.05;95.60
65758;BME280;52495;52.208;5.158;2023-05-14T06:15:35;101888.59;;;14.06;94.61
65758;BME280;52495;52.208;5.158;2023-05-14T06:18:02;101876.38;;;14.13;95.01
65758;BME280;52495;52.208;5.158;2023-05-14T06:20:29;101884.88;;;14.24;93.46
65758;BME280;52495;52.208;5.158;2023-05-14T06:22:56;101883.91;;;14.31;91.78
65758;BME280;52495;52.208;5.158;2023-05-14T06:25:22;101884.78;;;14.30;91.78
65758;BME280;52495;52.208;5.158;2023-05-14T06:27:49;101896.09;;;14.26;92.70
65758;BME280;52495;52.208;5.158;2023-05-14T06:30:17;101893.53;;;14.23;93.07
65758;BME280;52495;52.208;5.158;2023-05-14T06:32:44;101883.84;;;14.33;92.47
65758;BME280;52495;52.208;5.158;2023-05-14T06:35:11;101880.53;;;14.24;91.29
65758;BME280;52495;52.208;5.158;2023-05-14T06:37:38;101881.25;;;14.34;91.12
65758;BME280;52495;52.208;5.158;2023-05-14T06:40:06;101881.25;;;14.34;90.57
65758;BME280;52495;52.208;5.158;2023-05-14T06:42:32;101875.13;;;14.35;90.66
65758;BME280;52495;52.208;5.158;2023-05-14T06:44:59;101875.09;;;14.38;90.70
65758;BME280;52495;52.208;5.158;2023-05-14T06:47:27;101887.25;;;14.36;89.96
65758;BME280;52495;52.208;5.158;2023-05-14T06:49:54;101875.09;;;14.38;90.20
65758;BME280;52495;52.208;5.158;2023-05-14T06:52:23;101879.31;;;14.46;90.57
65758;BME280;52495;52.208;5.158;2023-05-14T06:54:51;101874.19;;;14.42;90.42
65758;BME280;52495;52.208;5.158;2023-05-14T06:57:18;101875.88;;;14.44;89.74
65758;BME280;52495;52.208;5.158;2023-05-14T06:59:45;101878.31;;;14.54;90.37
65758;BME280;52495;52.208;5.158;2023-05-14T07:02:12;101872.09;;;14.63;89.08
65758;BME280;52495;52.208;5.158;2023-05-14T07:04:40;101882.38;;;14.71;89.47
65758;BME280;52495;52.208;5.158;2023-05-14T07:07:06;101883.31;;;14.68;86.67
65758;BME280;52495;52.208;5.158;2023-05-14T07:09:35;101876.91;;;14.86;86.11
65758;BME280;52495;52.208;5.158;2023-05-14T07:12:01;101886.56;;;14.78;86.09
65758;BME280;52495;52.208;5.158;2023-05-14T07:14:28;101877.69;;;14.90;85.86
65758;BME280;52495;52.208;5.158;2023-05-14T07:16:55;101880.09;;;15.02;84.54
65758;BME280;52495;52.208;5.158;2023-05-14T07:19:22;101880.84;;;15.08;84.59
65758;BME280;52495;52.208;5.158;2023-05-14T07:21:50;101891.91;;;15.17;84.25
65758;BME280;52495;52.208;5.158;2023-05-14T07:24:17;101886.63;;;15.22;83.71
65758;BME280;52495;52.208;5.158;2023-05-14T07:26:44;101877.78;;;15.31;82.17
65758;BME280;52495;52.208;5.158;2023-05-14T07:29:10;101884.75;;;15.30;82.37
65758;BME280;52495;52.208;5.158;2023-05-14T07:31:37;101878.66;;;15.31;83.28
65758;BME280;52495;52.208;5.158;2023-05-14T07:34:04;101888.09;;;15.36;82.70
65758;BME280;52495;52.208;5.158;2023-05-14T07:36:32;101881.75;;;15.49;81.83
65758;BME280;52495;52.208;5.158;2023-05-14T07:39:00;101880.16;;;15.42;81.37
65758;BME280;52495;52.208;5.158;2023-05-14T07:41:27;101875.88;;;15.39;81.14
65758;BME280;52495;52.208;5.158;2023-05-14T07:43:54;101879.66;;;15.24;82.41
65758;BME280;52495;52.208;5.158;2023-05-14T07:46:21;101880.47;;;15.28;82.62
65758;BME280;52495;52.208;5.158;2023-05-14T07:48:48;101874.34;;;15.29;82.82
65758;BME280;52495;52.208;5.158;2023-05-14T07:51:17;101871.78;;;15.27;83.19
65758;BME280;52495;52.208;5.158;2023-05-14T07:53:44;101876.00;;;15.33;83.33
65758;BME280;52495;52.208;5.158;2023-05-14T07:56:12;101858.78;;;15.27;83.47
65758;BME280;52495;52.208;5.158;2023-05-14T07:58:39;101875.31;;;15.25;84.32
65758;BME280;52495;52.208;5.158;2023-05-14T08:01:06;101873.44;;;15.31;83.75
65758;BME280;52495;52.208;5.158;2023-05-14T08:03:33;101865.81;;;15.22;84.22
65758;BME280;52495;52.208;5.158;2023-05-14T08:06:00;101872.50;;;15.36;84.45
65758;BME280;52495;52.208;5.158;2023-05-14T08:08:28;101875.81;;;15.42;84.29
65758;BME280;52495;52.208;5.158;2023-05-14T08:10:55;101861.78;;;15.50;83.17
65758;BME280;52495;52.208;5.158;2023-05-14T08:13:23;101875.78;;;15.44;84.74
65758;BME280;52495;52.208;5.158;2023-05-14T08:15:50;101855.38;;;15.65;82.66
65758;BME280;52495;52.208;5.158;2023-05-14T08:18:17;101863.88;;;15.73;83.18
65758;BME280;52495;52.208;5.158;2023-05-14T08:20:44;101873.13;;;15.88;82.08
65758;BME280;52495;52.208;5.158;2023-05-14T08:23:11;101863.47;;;15.93;82.02
65758;BME280;52495;52.208;5.158;2023-05-14T08:25:38;101868.25;;;16.12;80.58
65758;BME280;52495;52.208;5.158;2023-05-14T08:28:04;101864.59;;;16.19;80.62
65758;BME280;52495;52.208;5.158;2023-05-14T08:30:33;101877.41;;;16.27;79.98
65758;BME280;52495;52.208;5.158;2023-05-14T08:32:59;101872.66;;;16.44;78.72
65758;BME280;52495;52.208;5.158;2023-05-14T08:35:26;101876.81;;;16.51;77.37
65758;BME280;52495;52.208;5.158;2023-05-14T08:37:53;101868.19;;;16.49;78.47
65758;BME280;52495;52.208;5.158;2023-05-14T08:40:21;101859.13;;;16.64;77.64
65758;BME280;52495;52.208;5.158;2023-05-14T08:42:50;101859.75;;;16.73;76.51
65758;BME280;52495;52.208;5.158;2023-05-14T08:45:18;101857.19;;;16.71;76.68
65758;BME280;52495;52.208;5.158;2023-05-14T08:47:48;101845.34;;;16.58;77.51
65758;BME280;52495;52.208;5.158;2023-05-14T08:50:15;101846.91;;;16.65;76.63
65758;BME280;52495;52.208;5.158;2023-05-14T08:52:44;101847.88;;;16.61;77.84
65758;BME280;52495;52.208;5.158;2023-05-14T08:55:11;101841.34;;;16.79;77.81
65758;BME280;52495;52.208;5.158;2023-05-14T08:57:38;101839.22;;;16.92;77.45
65758;BME280;52495;52.208;5.158;2023-05-14T09:00:06;101836.41;;;16.68;77.50
65758;BME280;52495;52.208;5.158;2023-05-14T09:02:36;101837.25;;;17.02;75.71
65758;BME280;52495;52.208;5.158;2023-05-14T09:05:06;101836.34;;;17.04;74.61
65758;BME280;52495;52.208;5.158;2023-05-14T09:07:35;101832.47;;;17.18;74.92
65758;BME280;52495;52.208;5.158;2023-05-14T09:10:02;101833.72;;;17.04;75.53
65758;BME280;52495;52.208;5.158;2023-05-14T09:12:29;101833.75;;;17.03;76.04
65758;BME280;52495;52.208;5.158;2023-05-14T09:14:56;101815.63;;;16.98;75.85
65758;BME280;52495;52.208;5.158;2023-05-14T09:17:24;101817.34;;;16.99;75.87
65758;BME280;52495;52.208;5.158;2023-05-14T09:19:52;101830.50;;;16.93;75.87
65758;BME280;52495;52.208;5.158;2023-05-14T09:22:20;101814.19;;;17.18;73.33
65758;BME280;52495;52.208;5.158;2023-05-14T09:25:01;101818.88;;;17.06;74.35
65758;BME280;52495;52.208;5.158;2023-05-14T09:27:29;101831.16;;;17.33;72.20
65758;BME280;52495;52.208;5.158;2023-05-14T09:30:03;101816.56;;;17.25;72.19
65758;BME280;52495;52.208;5.158;2023-05-14T09:32:34;101814.22;;;17.46;70.98
65758;BME280;52495;52.208;5.158;2023-05-14T09:35:15;101816.69;;;17.51;70.76
65758;BME280;52495;52.208;5.158;2023-05-14T09:37:45;101815.38;;;17.66;71.20
65758;BME280;52495;52.208;5.158;2023-05-14T09:40:13;101822.16;;;17.71;70.73
65758;BME280;52495;52.208;5.158;2023-05-14T09:42:40;101810.00;;;17.70;71.14
65758;BME280;52495;52.208;5.158;2023-05-14T09:45:08;101801.00;;;17.22;71.71
65758;BME280;52495;52.208;5.158;2023-05-14T09:47:35;101803.63;;;17.51;70.20
65758;BME280;52495;52.208;5.158;2023-05-14T09:50:03;101803.44;;;17.57;70.95
65758;BME280;52495;52.208;5.158;2023-05-14T09:52:30;101795.81;;;17.78;70.76
65758;BME280;52495;52.208;5.158;2023-05-14T09:54:58;101799.03;;;17.86;70.10
65758;BME280;52495;52.208;5.158;2023-05-14T09:57:26;101790.88;;;17.97;70.22
65758;BME280;52495;52.208;5.158;2023-05-14T09:59:53;101793.78;;;18.14;70.66
65758;BME280;52495;52.208;5.158;2023-05-14T10:02:22;101799.59;;;18.23;70.46
65758;BME280;52495;52.208;5.158;2023-05-14T10:04:52;101796.69;;;18.32;69.88
65758;BME280;52495;52.208;5.158;2023-05-14T10:07:25;101793.03;;;18.36;69.80
65758;BME280;52495;52.208;5.158;2023-05-14T10:09:58;101804.09;;;18.19;70.30
65758;BME280;52495;52.208;5.158;2023-05-14T10:12:28;101801.22;;;18.27;69.70
65758;BME280;52495;52.208;5.158;2023-05-14T10:15:00;101781.84;;;18.32;70.15
65758;BME280;52495;52.208;5.158;2023-05-14T10:17:30;101785.97;;;18.40;70.06
65758;BME280;52495;52.208;5.158;2023-05-14T10:20:01;101785.94;;;18.65;68.97
65758;BME280;52495;52.208;5.158;2023-05-14T10:22:32;101788.03;;;18.55;68.51
65758;BME280;52495;52.208;5.158;2023-05-14T10:25:01;101784.16;;;18.42;68.72
65758;BME280;52495;52.208;5.158;2023-05-14T10:27:28;101779.41;;;18.28;69.27
65758;BME280;52495;52.208;5.158;2023-05-14T10:29:56;101776.41;;;18.62;67.94
65758;BME280;52495;52.208;5.158;2023-05-14T10:32:24;101780.88;;;18.84;67.43
65758;BME280;52495;52.208;5.158;2023-05-14T10:34:54;101777.81;;;18.96;65.87
65758;BME280;52495;52.208;5.158;2023-05-14T10:37:22;101773.84;;;19.10;63.58
65758;BME280;52495;52.208;5.158;2023-05-14T10:39:51;101778.13;;;19.13;65.12
65758;BME280;52495;52.208;5.158;2023-05-14T10:42:21;101774.16;;;19.24;65.74
65758;BME280;52495;52.208;5.158;2023-05-14T10:44:51;101776.19;;;19.40;64.80
65758;BME280;52495;52.208;5.158;2023-05-14T10:47:20;101779.84;;;19.36;62.98
65758;BME280;52495;52.208;5.158;2023-05-14T10:49:47;101775.63;;;19.32;64.08
65758;BME280;52495;52.208;5.158;2023-05-14T10:52:18;101770.34;;;19.11;65.32
65758;BME280;52495;52.208;5.158;2023-05-14T10:54:49;101763.59;;;19.28;63.66
65758;BME280;52495;52.208;5.158;2023-05-14T10:57:21;101755.59;;;19.31;63.74
65758;BME280;52495;52.208;5.158;2023-05-14T10:59:51;101767.31;;;19.44;63.67
65758;BME280;52495;52.208;5.158;2023-05-14T11:02:24;101754.75;;;19.52;62.81
65758;BME280;52495;52.208;5.158;2023-05-14T11:04:59;101759.78;;;19.57;61.75
65758;BME280;52495;52.208;5.158;2023-05-14T11:07:29;101761.06;;;19.47;61.02
65758;BME280;52495;52.208;5.158;2023-05-14T11:09:59;101751.44;;;19.47;62.02
65758;BME280;52495;52.208;5.158;2023-05-14T11:12:28;101752.78;;;19.58;61.79
65758;BME280;52495;52.208;5.158;2023-05-14T11:14:56;101748.97;;;19.44;61.86
65758;BME280;52495;52.208;5.158;2023-05-14T11:17:24;101751.09;;;19.56;61.22
65758;BME280;52495;52.208;5.158;2023-05-14T11:19:51;101750.53;;;19.48;59.81
65758;BME280;52495;52.208;5.158;2023-05-14T11:22:18;101747.78;;;19.51;59.92
65758;BME280;52495;52.208;5.158;2023-05-14T11:24:45;101740.59;;;19.56;62.19
65758;BME280;52495;52.208;5.158;2023-05-14T11:27:12;101739.69;;;19.58;63.50
65758;BME280;52495;52.208;5.158;2023-05-14T11:29:43;101734.56;;;19.54;63.98
65758;BME280;52495;52.208;5.158;2023-05-14T11:32:11;101738.28;;;19.71;64.92
65758;BME280;52495;52.208;5.158;2023-05-14T11:34:38;101730.84;;;19.60;65.80
65758;BME280;52495;52.208;5.158;2023-05-14T11:37:05;101721.97;;;19.85;63.15
65758;BME280;52495;52.208;5.158;2023-05-14T11:39:32;101722.97;;;20.03;59.01
65758;BME280;52495;52.208;5.158;2023-05-14T11:42:01;101718.59;;;20.04;60.59
65758;BME280;52495;52.208;5.158;2023-05-14T11:44:30;101716.44;;;20.13;60.45
65758;BME280;52495;52.208;5.158;2023-05-14T11:46:58;101712.47;;;20.24;58.39
65758;BME280;52495;52.208;5.158;2023-05-14T11:49:26;101715.84;;;20.46;57.45
65758;BME280;52495;52.208;5.158;2023-05-14T11:51:57;101713.84;;;20.52;57.42
65758;BME280;52495;52.208;5.158;2023-05-14T11:54:25;101707.56;;;20.56;57.28
65758;BME280;52495;52.208;5.158;2023-05-14T11:56:53;101708.91;;;20.65;56.75
65758;BME280;52495;52.208;5.158;2023-05-14T11:59:20;101704.69;;;20.81;56.75
65758;BME280;52495;52.208;5.158;2023-05-14T12:01:47;101700.97;;;20.66;55.64
65758;BME280;52495;52.208;5.158;2023-05-14T12:04:16;101694.59;;;20.91;57.63
65758;BME280;52495;52.208;5.158;2023-05-14T12:06:46;101693.97;;;20.86;59.36
65758;BME280;52495;52.208;5.158;2023-05-14T12:09:15;101688.19;;;20.58;61.54
65758;BME280;52495;52.208;5.158;2023-05-14T12:11:42;101690.69;;;20.61;61.55
65758;BME280;52495;52.208;5.158;2023-05-14T12:14:14;101687.00;;;20.85;56.76
65758;BME280;52495;52.208;5.158;2023-05-14T12:16:42;101685.06;;;20.69;55.60
65758;BME280;52495;52.208;5.158;2023-05-14T12:19:11;101695.09;;;20.61;55.80
65758;BME280;52495;52.208;5.158;2023-05-14T12:21:41;101695.22;;;20.58;56.41
65758;BME280;52495;52.208;5.158;2023-05-14T12:24:09;101689.16;;;20.76;55.37
65758;BME280;52495;52.208;5.158;2023-05-14T12:26:37;101688.91;;;20.43;56.89
65758;BME280;52495;52.208;5.158;2023-05-14T12:29:04;101688.78;;;20.65;55.76
65758;BME280;52495;52.208;5.158;2023-05-14T12:31:33;101683.31;;;20.70;55.07
65758;BME280;52495;52.208;5.158;2023-05-14T12:34:01;101679.09;;;20.86;56.65
65758;BME280;52495;52.208;5.158;2023-05-14T12:36:28;101678.22;;;20.47;57.80
65758;BME280;52495;52.208;5.158;2023-05-14T12:38:59;101672.91;;;20.87;56.35
65758;BME280;52495;52.208;5.158;2023-05-14T12:41:28;101674.25;;;20.77;55.57
65758;BME280;52495;52.208;5.158;2023-05-14T12:43:55;101669.09;;;20.75;57.01
65758;BME280;52495;52.208;5.158;2023-05-14T12:46:22;101665.66;;;20.92;57.48
65758;BME280;52495;52.208;5.158;2023-05-14T12:48:49;101659.38;;;21.14;56.73
65758;BME280;52495;52.208;5.158;2023-05-14T12:51:16;101659.44;;;21.13;57.72
65758;BME280;52495;52.208;5.158;2023-05-14T12:53:42;101670.41;;;20.27;56.15